sensor_id;sensor_type;location;lat;lon;timestamp;P1;durP1;ratioP1;P2;durP2;ratioP2
6292;SDS011;3179;54.350;10.102;2023-05-10T00:01:10;3.40;;;2.00;;
6292;SDS011;3179;54.350;10.102;2023-05-10T00:03:39;3.57;;;2.57;;
6292;SDS011;3179;54.350;10.102;2023-05-10T00:06:06;9.00;;;2.37;;
6292;SDS011;3179;54.350;10.102;2023-05-10T00:08:33;2.30;;;2.03;;
6292;SDS011;3179;54.350;10.102;2023-05-10T00:13:43;8.10;;;2.27;;
6292;SDS011;3179;54.350;10.102;2023-05-10T00:16:10;3.17;;;2.80;;
6292;SDS011;3179;54.350;10.102;2023-05-10T00:18:38;3.80;;;2.60;;
6292;SDS011;3179;54.350;10.102;2023-05-10T00:21:07;7.40;;;2.23;;
6292;SDS011;3179;54.350;10.102;2023-05-10T00:23:34;5.43;;;2.33;;
6292;SDS011;3179;54.350;10.102;2023-05-10T00:26:03;3.30;;;2.47;;
6292;SDS011;3179;54.350;10.102;2023-05-10T00:28:34;4.03;;;2.40;;
6292;SDS011;3179;54.350;10.102;2023-05-10T00:42:10;6.20;;;2.83;;
6292;SDS011;3179;54.350;10.102;2023-05-10T00:44:41;2.23;;;2.03;;
6292;SDS011;3179;54.350;10.102;2023-05-10T00:47:08;4.83;;;2.73;;
6292;SDS011;3179;54.350;10.102;2023-05-10T00:49:36;8.40;;;2.80;;
6292;SDS011;3179;54.350;10.102;2023-05-10T00:52:03;2.73;;;2.17;;
6292;SDS011;3179;54.350;10.102;2023-05-10T00:54:31;3.93;;;2.40;;
6292;SDS011;3179;54.350;10.102;2023-05-10T00:56:58;7.60;;;2.40;;
6292;SDS011;3179;54.350;10.102;2023-05-10T00:59:24;2.30;;;2.10;;
6292;SDS011;3179;54.350;10.102;2023-05-10T01:01:55;2.90;;;2.10;;
6292;SDS011;3179;54.350;10.102;2023-05-10T01:04:23;2.93;;;2.40;;
6292;SDS011;3179;54.350;10.102;2023-05-10T01:06:50;3.30;;;1.87;;
6292;SDS011;3179;54.350;10.102;2023-05-10T01:09:18;2.50;;;2.07;;
6292;SDS011;3179;54.350;10.102;2023-05-10T01:11:45;3.30;;;2.43;;
6292;SDS011;3179;54.350;10.102;2023-05-10T01:14:13;1.97;;;1.77;;
6292;SDS011;3179;54.350;10.102;2023-05-10T01:16:41;7.87;;;2.20;;
6292;SDS011;3179;54.350;10.102;2023-05-10T01:19:12;2.53;;;2.17;;
6292;SDS011;3179;54.350;10.102;2023-05-10T01:21:47;2.37;;;2.17;;
6292;SDS011;3179;54.350;10.102;2023-05-10T01:24:27;4.60;;;2.00;;
6292;SDS011;3179;54.350;10.102;2023-05-10T01:27:41;5.27;;;2.50;;
6292;SDS011;3179;54.350;10.102;2023-05-10T01:30:35;3.57;;;2.47;;
6292;SDS011;3179;54.350;10.102;2023-05-10T01:33:23;4.13;;;2.20;;
6292;SDS011;3179;54.350;10.102;2023-05-10T01:35:55;3.33;;;2.43;;
6292;SDS011;3179;54.350;10.102;2023-05-10T01:38:29;5.67;;;2.40;;
6292;SDS011;3179;54.350;10.102;2023-05-10T01:41:05;2.30;;;2.10;;
6292;SDS011;3179;54.350;10.102;2023-05-10T01:43:43;3.20;;;2.10;;
6292;SDS011;3179;54.350;10.102;2023-05-10T01:46:20;5.40;;;2.70;;
6292;SDS011;3179;54.350;10.102;2023-05-10T01:48:55;2.30;;;1.93;;
6292;SDS011;3179;54.350;10.102;2023-05-10T01:51:25;3.90;;;2.00;;
6292;SDS011;3179;54.350;10.102;2023-05-10T01:53:58;2.23;;;2.03;;
6292;SDS011;3179;54.350;10.102;2023-05-10T01:56:28;4.23;;;2.67;;
6292;SDS011;3179;54.350;10.102;2023-05-10T01:58:58;2.70;;;2.33;;
6292;SDS011;3179;54.350;10.102;2023-05-10T02:01:26;2.60;;;2.40;;
6292;SDS011;3179;54.350;10.102;2023-05-10T02:03:54;10.20;;;2.87;;
6292;SDS011;3179;54.350;10.102;2023-05-10T02:06:23;3.10;;;2.20;;
6292;SDS011;3179;54.350;10.102;2023-05-10T02:08:51;2.40;;;2.20;;
6292;SDS011;3179;54.350;10.102;2023-05-10T02:11:19;3.33;;;2.77;;
6292;SDS011;3179;54.350;10.102;2023-05-10T02:13:48;2.97;;;2.67;;
6292;SDS011;3179;54.350;10.102;2023-05-10T02:16:16;2.70;;;2.50;;
6292;SDS011;3179;54.350;10.102;2023-05-10T02:18:44;2.17;;;1.97;;
6292;SDS011;3179;54.350;10.102;2023-05-10T02:21:14;3.80;;;2.50;;
6292;SDS011;3179;54.350;10.102;2023-05-10T02:23:43;5.20;;;2.80;;
6292;SDS011;3179;54.350;10.102;2023-05-10T02:26:16;2.30;;;2.10;;
6292;SDS011;3179;54.350;10.102;2023-05-10T02:28:44;4.97;;;2.77;;
6292;SDS011;3179;54.350;10.102;2023-05-10T02:31:11;5.13;;;2.53;;
6292;SDS011;3179;54.350;10.102;2023-05-10T02:33:39;4.77;;;2.47;;
6292;SDS011;3179;54.350;10.102;2023-05-10T02:36:07;3.03;;;2.47;;
6292;SDS011;3179;54.350;10.102;2023-05-10T02:38:36;10.03;;;2.83;;
6292;SDS011;3179;54.350;10.102;2023-05-10T02:41:03;3.37;;;2.20;;
6292;SDS011;3179;54.350;10.102;2023-05-10T02:43:31;7.03;;;2.37;;
6292;SDS011;3179;54.350;10.102;2023-05-10T02:45:59;3.30;;;2.37;;
6292;SDS011;3179;54.350;10.102;2023-05-10T02:48:26;4.37;;;2.50;;
6292;SDS011;3179;54.350;10.102;2023-05-10T02:50:53;2.83;;;2.40;;
6292;SDS011;3179;54.350;10.102;2023-05-10T02:53:22;4.70;;;2.80;;
6292;SDS011;3179;54.350;10.102;2023-05-10T02:56:01;2.70;;;2.50;;
6292;SDS011;3179;54.350;10.102;2023-05-10T02:58:32;3.33;;;2.20;;
6292;SDS011;3179;54.350;10.102;2023-05-10T03:00:59;2.70;;;2.30;;
6292;SDS011;3179;54.350;10.102;2023-05-10T03:03:26;4.37;;;2.80;;
6292;SDS011;3179;54.350;10.102;2023-05-10T03:16:07;3.97;;;2.43;;
6292;SDS011;3179;54.350;10.102;2023-05-10T03:18:40;3.43;;;2.43;;
6292;SDS011;3179;54.350;10.102;2023-05-10T03:21:10;4.30;;;2.87;;
6292;SDS011;3179;54.350;10.102;2023-05-10T03:23:40;2.97;;;2.50;;
6292;SDS011;3179;54.350;10.102;2023-05-10T03:26:10;2.50;;;2.30;;
6292;SDS011;3179;54.350;10.102;2023-05-10T03:28:43;2.67;;;2.43;;
6292;SDS011;3179;54.350;10.102;2023-05-10T03:31:11;3.07;;;2.53;;
6292;SDS011;3179;54.350;10.102;2023-05-10T03:33:45;7.53;;;2.67;;
6292;SDS011;3179;54.350;10.102;2023-05-10T03:36:12;6.10;;;2.63;;
6292;SDS011;3179;54.350;10.102;2023-05-10T03:38:39;3.27;;;2.60;;
6292;SDS011;3179;54.350;10.102;2023-05-10T03:41:06;4.07;;;2.70;;
6292;SDS011;3179;54.350;10.102;2023-05-10T03:43:33;3.27;;;2.23;;
6292;SDS011;3179;54.350;10.102;2023-05-10T03:46:01;3.23;;;2.50;;
6292;SDS011;3179;54.350;10.102;2023-05-10T03:48:29;3.93;;;2.57;;
6292;SDS011;3179;54.350;10.102;2023-05-10T03:50:57;2.80;;;2.43;;
6292;SDS011;3179;54.350;10.102;2023-05-10T03:53:24;2.93;;;2.27;;
6292;SDS011;3179;54.350;10.102;2023-05-10T03:55:51;2.93;;;2.60;;
6292;SDS011;3179;54.350;10.102;2023-05-10T03:58:18;2.63;;;2.43;;
6292;SDS011;3179;54.350;10.102;2023-05-10T04:00:45;2.90;;;2.53;;
6292;SDS011;3179;54.350;10.102;2023-05-10T04:03:12;2.60;;;2.40;;
6292;SDS011;3179;54.350;10.102;2023-05-10T04:05:41;5.63;;;2.60;;
6292;SDS011;3179;54.350;10.102;2023-05-10T04:08:07;3.73;;;2.40;;
6292;SDS011;3179;54.350;10.102;2023-05-10T04:10:34;4.43;;;2.50;;
6292;SDS011;3179;54.350;10.102;2023-05-10T04:13:01;6.30;;;2.60;;
6292;SDS011;3179;54.350;10.102;2023-05-10T04:15:28;3.73;;;3.07;;
6292;SDS011;3179;54.350;10.102;2023-05-10T04:17:54;3.43;;;2.30;;
6292;SDS011;3179;54.350;10.102;2023-05-10T04:20:21;3.03;;;2.73;;
6292;SDS011;3179;54.350;10.102;2023-05-10T04:22:49;4.93;;;3.03;;
6292;SDS011;3179;54.350;10.102;2023-05-10T04:25:16;3.63;;;2.53;;
6292;SDS011;3179;54.350;10.102;2023-05-10T04:27:43;2.87;;;2.63;;
6292;SDS011;3179;54.350;10.102;2023-05-10T04:30:10;3.63;;;2.93;;
6292;SDS011;3179;54.350;10.102;2023-05-10T04:32:37;2.40;;;2.20;;
6292;SDS011;3179;54.350;10.102;2023-05-10T04:35:04;3.57;;;2.20;;
6292;SDS011;3179;54.350;10.102;2023-05-10T04:37:31;3.13;;;2.77;;
6292;SDS011;3179;54.350;10.102;2023-05-10T04:39:59;2.60;;;2.40;;
6292;SDS011;3179;54.350;10.102;2023-05-10T04:42:27;2.53;;;2.23;;
6292;SDS011;3179;54.350;10.102;2023-05-10T04:44:53;3.10;;;2.50;;
6292;SDS011;3179;54.350;10.102;2023-05-10T04:47:20;5.60;;;3.00;;
6292;SDS011;3179;54.350;10.102;2023-05-10T04:49:47;4.27;;;2.90;;
6292;SDS011;3179;54.350;10.102;2023-05-10T04:52:14;3.93;;;3.27;;
6292;SDS011;3179;54.350;10.102;2023-05-10T04:54:42;4.07;;;2.73;;
6292;SDS011;3179;54.350;10.102;2023-05-10T04:57:10;2.87;;;2.67;;
6292;SDS011;3179;54.350;10.102;2023-05-10T04:59:37;5.70;;;3.10;;
6292;SDS011;3179;54.350;10.102;2023-05-10T05:02:04;4.30;;;2.67;;
6292;SDS011;3179;54.350;10.102;2023-05-10T05:04:31;3.30;;;2.70;;
6292;SDS011;3179;54.350;10.102;2023-05-10T05:06:58;4.87;;;2.53;;
6292;SDS011;3179;54.350;10.102;2023-05-10T05:09:24;6.00;;;3.27;;
6292;SDS011;3179;54.350;10.102;2023-05-10T05:11:51;4.10;;;3.10;;
6292;SDS011;3179;54.350;10.102;2023-05-10T05:14:19;6.00;;;3.20;;
6292;SDS011;3179;54.350;10.102;2023-05-10T05:16:46;2.93;;;2.30;;
6292;SDS011;3179;54.350;10.102;2023-05-10T05:19:13;7.10;;;3.37;;
6292;SDS011;3179;54.350;10.102;2023-05-10T05:21:40;2.50;;;2.30;;
6292;SDS011;3179;54.350;10.102;2023-05-10T05:24:07;3.17;;;2.87;;
6292;SDS011;3179;54.350;10.102;2023-05-10T05:26:35;6.93;;;2.60;;
6292;SDS011;3179;54.350;10.102;2023-05-10T05:29:01;4.47;;;3.07;;
6292;SDS011;3179;54.350;10.102;2023-05-10T05:31:30;3.33;;;3.03;;
6292;SDS011;3179;54.350;10.102;2023-05-10T05:33:57;3.80;;;2.63;;
6292;SDS011;3179;54.350;10.102;2023-05-10T05:36:23;2.60;;;2.40;;
6292;SDS011;3179;54.350;10.102;2023-05-10T05:38:50;3.70;;;2.83;;
6292;SDS011;3179;54.350;10.102;2023-05-10T05:41:17;3.87;;;3.30;;
6292;SDS011;3179;54.350;10.102;2023-05-10T05:43:44;3.00;;;2.70;;
6292;SDS011;3179;54.350;10.102;2023-05-10T05:46:10;3.43;;;3.00;;
6292;SDS011;3179;54.350;10.102;2023-05-10T05:48:38;5.27;;;3.13;;
6292;SDS011;3179;54.350;10.102;2023-05-10T05:51:05;3.30;;;3.00;;
6292;SDS011;3179;54.350;10.102;2023-05-10T05:53:32;3.33;;;2.87;;
6292;SDS011;3179;54.350;10.102;2023-05-10T05:55:59;3.53;;;3.20;;
6292;SDS011;3179;54.350;10.102;2023-05-10T05:58:25;2.97;;;2.77;;
6292;SDS011;3179;54.350;10.102;2023-05-10T06:00:53;6.43;;;3.10;;
6292;SDS011;3179;54.350;10.102;2023-05-10T06:03:20;3.30;;;3.00;;
6292;SDS011;3179;54.350;10.102;2023-05-10T06:05:48;3.80;;;2.90;;
6292;SDS011;3179;54.350;10.102;2023-05-10T06:08:14;3.50;;;2.90;;
6292;SDS011;3179;54.350;10.102;2023-05-10T06:10:41;8.53;;;2.80;;
6292;SDS011;3179;54.350;10.102;2023-05-10T06:13:09;6.20;;;2.73;;
6292;SDS011;3179;54.350;10.102;2023-05-10T06:15:36;3.70;;;2.80;;
6292;SDS011;3179;54.350;10.102;2023-05-10T06:18:03;3.20;;;2.80;;
6292;SDS011;3179;54.350;10.102;2023-05-10T06:20:30;3.17;;;2.87;;
6292;SDS011;3179;54.350;10.102;2023-05-10T06:22:59;3.57;;;3.10;;
6292;SDS011;3179;54.350;10.102;2023-05-10T06:25:25;3.47;;;3.17;;
6292;SDS011;3179;54.350;10.102;2023-05-10T06:27:52;4.53;;;3.80;;
6292;SDS011;3179;54.350;10.102;2023-05-10T06:30:22;4.13;;;3.03;;
6292;SDS011;3179;54.350;10.102;2023-05-10T06:32:53;4.80;;;2.60;;
6292;SDS011;3179;54.350;10.102;2023-05-10T06:35:20;2.90;;;2.60;;
6292;SDS011;3179;54.350;10.102;2023-05-10T06:37:47;3.80;;;3.43;;
6292;SDS011;3179;54.350;10.102;2023-05-10T06:40:15;4.23;;;3.13;;
6292;SDS011;3179;54.350;10.102;2023-05-10T06:42:42;3.87;;;2.77;;
6292;SDS011;3179;54.350;10.102;2023-05-10T06:45:11;3.63;;;3.30;;
6292;SDS011;3179;54.350;10.102;2023-05-10T06:47:39;3.80;;;3.07;;
6292;SDS011;3179;54.350;10.102;2023-05-10T06:50:06;4.53;;;3.50;;
6292;SDS011;3179;54.350;10.102;2023-05-10T06:52:33;3.50;;;2.90;;
6292;SDS011;3179;54.350;10.102;2023-05-10T06:55:00;5.63;;;3.40;;
6292;SDS011;3179;54.350;10.102;2023-05-10T06:57:29;3.70;;;2.90;;
6292;SDS011;3179;54.350;10.102;2023-05-10T06:59:56;3.77;;;2.70;;
6292;SDS011;3179;54.350;10.102;2023-05-10T07:02:23;4.43;;;3.43;;
6292;SDS011;3179;54.350;10.102;2023-05-10T07:04:50;2.90;;;2.70;;
6292;SDS011;3179;54.350;10.102;2023-05-10T07:07:17;3.73;;;3.33;;
6292;SDS011;3179;54.350;10.102;2023-05-10T07:09:44;3.03;;;2.83;;
6292;SDS011;3179;54.350;10.102;2023-05-10T07:12:11;3.87;;;2.93;;
6292;SDS011;3179;54.350;10.102;2023-05-10T07:14:39;6.87;;;3.20;;
6292;SDS011;3179;54.350;10.102;2023-05-10T07:17:06;4.87;;;2.93;;
6292;SDS011;3179;54.350;10.102;2023-05-10T07:19:33;7.80;;;3.03;;
6292;SDS011;3179;54.350;10.102;2023-05-10T07:22:00;4.20;;;3.47;;
6292;SDS011;3179;54.350;10.102;2023-05-10T07:24:27;3.80;;;2.93;;
6292;SDS011;3179;54.350;10.102;2023-05-10T07:26:54;3.90;;;3.03;;
6292;SDS011;3179;54.350;10.102;2023-05-10T07:29:20;4.10;;;3.00;;
6292;SDS011;3179;54.350;10.102;2023-05-10T07:31:48;3.27;;;2.97;;
6292;SDS011;3179;54.350;10.102;2023-05-10T07:34:15;3.33;;;3.03;;
6292;SDS011;3179;54.350;10.102;2023-05-10T07:36:42;6.23;;;3.67;;
6292;SDS011;3179;54.350;10.102;2023-05-10T07:39:09;5.20;;;3.27;;
6292;SDS011;3179;54.350;10.102;2023-05-10T07:41:35;5.13;;;3.30;;
6292;SDS011;3179;54.350;10.102;2023-05-10T07:44:03;3.20;;;2.90;;
6292;SDS011;3179;54.350;10.102;2023-05-10T07:46:30;5.57;;;2.83;;
6292;SDS011;3179;54.350;10.102;2023-05-10T07:48:58;3.07;;;2.87;;
6292;SDS011;3179;54.350;10.102;2023-05-10T07:51:25;7.07;;;3.00;;
6292;SDS011;3179;54.350;10.102;2023-05-10T07:53:52;3.70;;;2.67;;
6292;SDS011;3179;54.350;10.102;2023-05-10T07:56:20;3.30;;;2.70;;
6292;SDS011;3179;54.350;10.102;2023-05-10T07:58:49;5.10;;;3.57;;
6292;SDS011;3179;54.350;10.102;2023-05-10T08:01:16;4.00;;;3.20;;
6292;SDS011;3179;54.350;10.102;2023-05-10T08:03:43;6.60;;;3.30;;
6292;SDS011;3179;54.350;10.102;2023-05-10T08:06:11;6.00;;;3.40;;
6292;SDS011;3179;54.350;10.102;2023-05-10T08:08:38;3.30;;;2.83;;
6292;SDS011;3179;54.350;10.102;2023-05-10T08:11:06;3.90;;;3.20;;
6292;SDS011;3179;54.350;10.102;2023-05-10T08:13:32;4.30;;;3.30;;
6292;SDS011;3179;54.350;10.102;2023-05-10T08:15:59;7.70;;;3.30;;
6292;SDS011;3179;54.350;10.102;2023-05-10T08:18:26;4.80;;;3.10;;
6292;SDS011;3179;54.350;10.102;2023-05-10T08:20:53;3.23;;;2.90;;
6292;SDS011;3179;54.350;10.102;2023-05-10T08:23:22;3.43;;;3.00;;
6292;SDS011;3179;54.350;10.102;2023-05-10T08:25:48;4.60;;;3.23;;
6292;SDS011;3179;54.350;10.102;2023-05-10T08:28:15;3.17;;;2.93;;
6292;SDS011;3179;54.350;10.102;2023-05-10T08:30:42;4.27;;;3.10;;
6292;SDS011;3179;54.350;10.102;2023-05-10T08:33:08;4.33;;;3.20;;
6292;SDS011;3179;54.350;10.102;2023-05-10T08:35:35;6.50;;;3.10;;
6292;SDS011;3179;54.350;10.102;2023-05-10T08:38:02;4.73;;;3.30;;
6292;SDS011;3179;54.350;10.102;2023-05-10T08:40:30;4.17;;;3.10;;
6292;SDS011;3179;54.350;10.102;2023-05-10T08:42:58;4.57;;;3.47;;
6292;SDS011;3179;54.350;10.102;2023-05-10T08:45:32;3.93;;;3.17;;
6292;SDS011;3179;54.350;10.102;2023-05-10T08:47:59;3.30;;;3.00;;
6292;SDS011;3179;54.350;10.102;2023-05-10T08:50:27;4.50;;;3.03;;
6292;SDS011;3179;54.350;10.102;2023-05-10T08:52:57;3.50;;;3.20;;
6292;SDS011;3179;54.350;10.102;2023-05-10T08:55:26;3.00;;;2.70;;
6292;SDS011;3179;54.350;10.102;2023-05-10T08:57:54;5.13;;;3.20;;
6292;SDS011;3179;54.350;10.102;2023-05-10T09:00:21;2.80;;;2.57;;
6292;SDS011;3179;54.350;10.102;2023-05-10T09:02:49;6.23;;;3.13;;
6292;SDS011;3179;54.350;10.102;2023-05-10T09:05:16;3.17;;;2.87;;
6292;SDS011;3179;54.350;10.102;2023-05-10T09:07:43;4.23;;;3.70;;
6292;SDS011;3179;54.350;10.102;2023-05-10T09:10:10;9.20;;;3.40;;
6292;SDS011;3179;54.350;10.102;2023-05-10T09:12:37;5.10;;;3.33;;
6292;SDS011;3179;54.350;10.102;2023-05-10T09:15:06;4.70;;;3.10;;
6292;SDS011;3179;54.350;10.102;2023-05-10T09:17:35;3.33;;;2.90;;
6292;SDS011;3179;54.350;10.102;2023-05-10T09:20:03;3.53;;;2.80;;
6292;SDS011;3179;54.350;10.102;2023-05-10T09:22:31;3.33;;;2.47;;
6292;SDS011;3179;54.350;10.102;2023-05-10T09:25:05;3.23;;;2.53;;
6292;SDS011;3179;54.350;10.102;2023-05-10T09:27:33;3.63;;;3.20;;
6292;SDS011;3179;54.350;10.102;2023-05-10T09:30:00;3.87;;;2.97;;
6292;SDS011;3179;54.350;10.102;2023-05-10T09:32:36;4.83;;;2.97;;
6292;SDS011;3179;54.350;10.102;2023-05-10T09:35:08;4.07;;;3.33;;
6292;SDS011;3179;54.350;10.102;2023-05-10T09:37:35;5.80;;;3.10;;
6292;SDS011;3179;54.350;10.102;2023-05-10T09:40:05;4.37;;;3.13;;
6292;SDS011;3179;54.350;10.102;2023-05-10T09:42:33;5.40;;;3.67;;
6292;SDS011;3179;54.350;10.102;2023-05-10T09:45:01;5.90;;;2.97;;
6292;SDS011;3179;54.350;10.102;2023-05-10T09:47:29;3.17;;;2.83;;
6292;SDS011;3179;54.350;10.102;2023-05-10T09:49:59;3.40;;;2.60;;
6292;SDS011;3179;54.350;10.102;2023-05-10T09:52:28;3.50;;;2.97;;
6292;SDS011;3179;54.350;10.102;2023-05-10T09:54:55;5.47;;;3.20;;
6292;SDS011;3179;54.350;10.102;2023-05-10T09:57:23;3.40;;;2.97;;
6292;SDS011;3179;54.350;10.102;2023-05-10T09:59:50;5.30;;;3.03;;
6292;SDS011;3179;54.350;10.102;2023-05-10T10:02:19;3.40;;;2.97;;
6292;SDS011;3179;54.350;10.102;2023-05-10T10:04:48;3.80;;;3.40;;
6292;SDS011;3179;54.350;10.102;2023-05-10T10:07:17;3.90;;;3.40;;
6292;SDS011;3179;54.350;10.102;2023-05-10T10:09:51;14.57;;;6.50;;
6292;SDS011;3179;54.350;10.102;2023-05-10T10:12:19;21.10;;;7.77;;
6292;SDS011;3179;54.350;10.102;2023-05-10T10:14:46;8.30;;;5.07;;
6292;SDS011;3179;54.350;10.102;2023-05-10T10:17:14;9.00;;;4.90;;
6292;SDS011;3179;54.350;10.102;2023-05-10T10:19:41;10.73;;;4.57;;
6292;SDS011;3179;54.350;10.102;2023-05-10T10:22:08;4.70;;;4.20;;
6292;SDS011;3179;54.350;10.102;2023-05-10T10:24:38;8.90;;;4.63;;
6292;SDS011;3179;54.350;10.102;2023-05-10T10:27:11;6.00;;;3.60;;
6292;SDS011;3179;54.350;10.102;2023-05-10T10:29:47;4.53;;;4.07;;
6292;SDS011;3179;54.350;10.102;2023-05-10T10:32:25;4.50;;;3.80;;
6292;SDS011;3179;54.350;10.102;2023-05-10T10:34:59;15.03;;;5.17;;
6292;SDS011;3179;54.350;10.102;2023-05-10T10:37:40;4.57;;;4.13;;
6292;SDS011;3179;54.350;10.102;2023-05-10T10:40:26;8.80;;;4.37;;
6292;SDS011;3179;54.350;10.102;2023-05-10T10:42:54;7.73;;;4.00;;
6292;SDS011;3179;54.350;10.102;2023-05-10T10:45:22;4.23;;;3.83;;
6292;SDS011;3179;54.350;10.102;2023-05-10T10:47:53;3.57;;;3.10;;
6292;SDS011;3179;54.350;10.102;2023-05-10T10:50:42;4.90;;;3.90;;
6292;SDS011;3179;54.350;10.102;2023-05-10T10:53:10;3.33;;;3.03;;
6292;SDS011;3179;54.350;10.102;2023-05-10T10:55:45;4.43;;;3.13;;
6292;SDS011;3179;54.350;10.102;2023-05-10T10:58:28;3.33;;;3.03;;
6292;SDS011;3179;54.350;10.102;2023-05-10T11:01:09;3.33;;;2.57;;
6292;SDS011;3179;54.350;10.102;2023-05-10T11:03:37;4.57;;;3.20;;
6292;SDS011;3179;54.350;10.102;2023-05-10T11:06:04;4.77;;;3.60;;
6292;SDS011;3179;54.350;10.102;2023-05-10T11:08:31;3.73;;;3.43;;
6292;SDS011;3179;54.350;10.102;2023-05-10T11:11:04;3.47;;;3.17;;
6292;SDS011;3179;54.350;10.102;2023-05-10T11:13:33;5.00;;;3.07;;
6292;SDS011;3179;54.350;10.102;2023-05-10T11:16:10;3.63;;;3.33;;
6292;SDS011;3179;54.350;10.102;2023-05-10T11:21:29;4.10;;;3.73;;
6292;SDS011;3179;54.350;10.102;2023-05-10T11:23:57;4.60;;;3.07;;
6292;SDS011;3179;54.350;10.102;2023-05-10T11:26:27;3.23;;;2.93;;
6292;SDS011;3179;54.350;10.102;2023-05-10T11:28:57;3.53;;;3.23;;
6292;SDS011;3179;54.350;10.102;2023-05-10T11:31:26;5.27;;;3.37;;
6292;SDS011;3179;54.350;10.102;2023-05-10T11:33:54;5.17;;;3.80;;
6292;SDS011;3179;54.350;10.102;2023-05-10T11:36:23;3.50;;;3.10;;
6292;SDS011;3179;54.350;10.102;2023-05-10T11:38:51;3.80;;;3.50;;
6292;SDS011;3179;54.350;10.102;2023-05-10T11:41:19;3.57;;;3.27;;
6292;SDS011;3179;54.350;10.102;2023-05-10T11:43:49;5.37;;;3.47;;
6292;SDS011;3179;54.350;10.102;2023-05-10T11:46:18;5.67;;;3.20;;
6292;SDS011;3179;54.350;10.102;2023-05-10T11:48:46;3.30;;;3.00;;
6292;SDS011;3179;54.350;10.102;2023-05-10T11:51:19;3.70;;;3.30;;
6292;SDS011;3179;54.350;10.102;2023-05-10T11:53:46;3.43;;;3.13;;
6292;SDS011;3179;54.350;10.102;2023-05-10T11:56:13;5.60;;;3.30;;
6292;SDS011;3179;54.350;10.102;2023-05-10T11:58:40;6.20;;;3.03;;
6292;SDS011;3179;54.350;10.102;2023-05-10T12:01:09;4.37;;;3.83;;
6292;SDS011;3179;54.350;10.102;2023-05-10T12:03:36;4.63;;;3.27;;
6292;SDS011;3179;54.350;10.102;2023-05-10T12:06:04;10.10;;;3.43;;
6292;SDS011;3179;54.350;10.102;2023-05-10T12:08:33;3.70;;;3.40;;
6292;SDS011;3179;54.350;10.102;2023-05-10T12:11:06;5.20;;;3.73;;
6292;SDS011;3179;54.350;10.102;2023-05-10T12:13:37;4.50;;;3.50;;
6292;SDS011;3179;54.350;10.102;2023-05-10T12:16:13;3.97;;;3.30;;
6292;SDS011;3179;54.350;10.102;2023-05-10T12:18:42;3.17;;;2.87;;
6292;SDS011;3179;54.350;10.102;2023-05-10T12:21:09;3.60;;;3.30;;
6292;SDS011;3179;54.350;10.102;2023-05-10T12:23:36;4.33;;;3.50;;
6292;SDS011;3179;54.350;10.102;2023-05-10T12:26:03;4.60;;;3.80;;
6292;SDS011;3179;54.350;10.102;2023-05-10T12:28:30;7.93;;;3.67;;
6292;SDS011;3179;54.350;10.102;2023-05-10T12:30:59;5.30;;;3.07;;
6292;SDS011;3179;54.350;10.102;2023-05-10T12:33:27;4.80;;;3.33;;
6292;SDS011;3179;54.350;10.102;2023-05-10T12:36:02;4.60;;;4.20;;
6292;SDS011;3179;54.350;10.102;2023-05-10T12:38:29;4.57;;;4.13;;
6292;SDS011;3179;54.350;10.102;2023-05-10T12:40:59;5.13;;;4.10;;
6292;SDS011;3179;54.350;10.102;2023-05-10T12:43:27;5.03;;;4.53;;
6292;SDS011;3179;54.350;10.102;2023-05-10T12:45:54;5.57;;;4.90;;
6292;SDS011;3179;54.350;10.102;2023-05-10T12:48:22;5.40;;;4.90;;
6292;SDS011;3179;54.350;10.102;2023-05-10T12:50:50;5.30;;;4.80;;
6292;SDS011;3179;54.350;10.102;2023-05-10T12:53:17;5.40;;;5.00;;
6292;SDS011;3179;54.350;10.102;2023-05-10T12:55:43;5.37;;;4.87;;
6292;SDS011;3179;54.350;10.102;2023-05-10T12:58:10;10.87;;;5.20;;
6292;SDS011;3179;54.350;10.102;2023-05-10T13:00:37;6.40;;;5.33;;
6292;SDS011;3179;54.350;10.102;2023-05-10T13:03:04;7.60;;;5.50;;
6292;SDS011;3179;54.350;10.102;2023-05-10T13:05:31;5.70;;;5.10;;
6292;SDS011;3179;54.350;10.102;2023-05-10T13:07:59;7.60;;;4.90;;
6292;SDS011;3179;54.350;10.102;2023-05-10T13:10:27;5.43;;;4.60;;
6292;SDS011;3179;54.350;10.102;2023-05-10T13:12:55;6.37;;;5.77;;
6292;SDS011;3179;54.350;10.102;2023-05-10T13:15:22;6.57;;;5.90;;
6292;SDS011;3179;54.350;10.102;2023-05-10T13:17:48;5.93;;;5.13;;
6292;SDS011;3179;54.350;10.102;2023-05-10T13:20:15;8.73;;;5.93;;
6292;SDS011;3179;54.350;10.102;2023-05-10T13:22:42;8.10;;;5.13;;
6292;SDS011;3179;54.350;10.102;2023-05-10T13:25:11;7.23;;;5.80;;
6292;SDS011;3179;54.350;10.102;2023-05-10T13:27:38;7.70;;;5.67;;
6292;SDS011;3179;54.350;10.102;2023-05-10T13:30:06;7.13;;;5.80;;
6292;SDS011;3179;54.350;10.102;2023-05-10T13:32:33;6.33;;;5.70;;
6292;SDS011;3179;54.350;10.102;2023-05-10T13:35:01;6.93;;;6.30;;
6292;SDS011;3179;54.350;10.102;2023-05-10T13:37:28;8.80;;;5.90;;
6292;SDS011;3179;54.350;10.102;2023-05-10T13:39:55;5.77;;;5.17;;
6292;SDS011;3179;54.350;10.102;2023-05-10T13:42:23;6.20;;;5.70;;
6292;SDS011;3179;54.350;10.102;2023-05-10T13:44:50;6.90;;;6.17;;
6292;SDS011;3179;54.350;10.102;2023-05-10T13:47:17;7.90;;;5.73;;
6292;SDS011;3179;54.350;10.102;2023-05-10T13:49:44;6.60;;;5.90;;
6292;SDS011;3179;54.350;10.102;2023-05-10T13:52:10;7.47;;;6.27;;
6292;SDS011;3179;54.350;10.102;2023-05-10T13:54:38;11.20;;;5.97;;
6292;SDS011;3179;54.350;10.102;2023-05-10T13:57:05;6.57;;;5.97;;
6292;SDS011;3179;54.350;10.102;2023-05-10T13:59:35;5.83;;;5.33;;
6292;SDS011;3179;54.350;10.102;2023-05-10T14:02:02;5.90;;;5.40;;
6292;SDS011;3179;54.350;10.102;2023-05-10T14:04:29;7.90;;;5.87;;
6292;SDS011;3179;54.350;10.102;2023-05-10T14:06:56;6.27;;;5.67;;
6292;SDS011;3179;54.350;10.102;2023-05-10T14:09:23;6.73;;;5.40;;
6292;SDS011;3179;54.350;10.102;2023-05-10T14:11:50;8.43;;;5.83;;
6292;SDS011;3179;54.350;10.102;2023-05-10T14:14:16;6.27;;;5.70;;
6292;SDS011;3179;54.350;10.102;2023-05-10T14:16:44;7.20;;;5.00;;
6292;SDS011;3179;54.350;10.102;2023-05-10T14:19:11;6.47;;;5.87;;
6292;SDS011;3179;54.350;10.102;2023-05-10T14:21:38;7.00;;;6.13;;
6292;SDS011;3179;54.350;10.102;2023-05-10T14:24:06;6.37;;;5.57;;
6292;SDS011;3179;54.350;10.102;2023-05-10T14:26:33;5.67;;;5.17;;
6292;SDS011;3179;54.350;10.102;2023-05-10T14:29:00;13.10;;;5.93;;
6292;SDS011;3179;54.350;10.102;2023-05-10T14:31:27;7.27;;;6.57;;
6292;SDS011;3179;54.350;10.102;2023-05-10T14:33:56;6.00;;;5.50;;
6292;SDS011;3179;54.350;10.102;2023-05-10T14:36:24;10.23;;;6.10;;
6292;SDS011;3179;54.350;10.102;2023-05-10T14:38:50;6.93;;;5.53;;
6292;SDS011;3179;54.350;10.102;2023-05-10T14:41:17;6.27;;;5.67;;
6292;SDS011;3179;54.350;10.102;2023-05-10T14:43:44;6.87;;;5.83;;
6292;SDS011;3179;54.350;10.102;2023-05-10T14:46:11;9.37;;;5.77;;
6292;SDS011;3179;54.350;10.102;2023-05-10T14:48:37;7.50;;;6.00;;
6292;SDS011;3179;54.350;10.102;2023-05-10T14:51:05;6.50;;;5.90;;
6292;SDS011;3179;54.350;10.102;2023-05-10T14:53:32;6.50;;;5.90;;
6292;SDS011;3179;54.350;10.102;2023-05-10T14:55:59;6.07;;;5.47;;
6292;SDS011;3179;54.350;10.102;2023-05-10T14:58:27;6.93;;;6.33;;
6292;SDS011;3179;54.350;10.102;2023-05-10T15:00:54;6.57;;;5.90;;
6292;SDS011;3179;54.350;10.102;2023-05-10T15:03:21;6.23;;;5.60;;
6292;SDS011;3179;54.350;10.102;2023-05-10T15:05:48;5.37;;;4.87;;
6292;SDS011;3179;54.350;10.102;2023-05-10T15:08:16;6.00;;;5.40;;
6292;SDS011;3179;54.350;10.102;2023-05-10T15:10:43;6.40;;;5.00;;
6292;SDS011;3179;54.350;10.102;2023-05-10T15:13:09;6.00;;;5.37;;
6292;SDS011;3179;54.350;10.102;2023-05-10T15:15:36;5.63;;;5.10;;
6292;SDS011;3179;54.350;10.102;2023-05-10T15:18:03;5.50;;;5.00;;
6292;SDS011;3179;54.350;10.102;2023-05-10T15:20:30;7.47;;;4.93;;
6292;SDS011;3179;54.350;10.102;2023-05-10T15:22:57;4.90;;;4.50;;
6292;SDS011;3179;54.350;10.102;2023-05-10T15:25:25;5.83;;;4.93;;
6292;SDS011;3179;54.350;10.102;2023-05-10T15:27:53;5.40;;;4.90;;
6292;SDS011;3179;54.350;10.102;2023-05-10T15:30:20;6.43;;;5.07;;
6292;SDS011;3179;54.350;10.102;2023-05-10T15:32:47;5.20;;;4.77;;
6292;SDS011;3179;54.350;10.102;2023-05-10T15:35:14;5.00;;;4.50;;